Time;durP1;ratioP1;P1;durP2;ratioP2;P2;SDS_P1;SDS_P2;PMS_P1;PMS_P2;Temp;Humidity;BMP_temperature;BMP_pressure;BME280_temperature;BME280_humidity;BME280_pressure;Samples;Min_cycle;Max_cycle;Signal;HPM_P1;HPM_P2
2022/03/08 00:01:40;;;;;;;24.37;15.40;;;-1.50;99.90;;;;;;4979116;28;20211;-30
2022/03/08 00:04:06;;;;;;;23.20;14.50;;;-1.60;99.90;;;;;;4995343;28;20632;-29
2022/03/08 00:06:31;;;;;;;23.23;14.33;;;-1.60;99.90;;;;;;4995794;28;20179;-30
2022/03/08 00:08:57;;;;;;;21.60;14.37;;;-1.60;99.90;;;;;;4978774;28;20175;-29
2022/03/08 00:11:24;;;;;;;22.27;13.60;;;-1.60;99.90;;;;;;4978766;28;20215;-29
2022/03/08 00:13:52;;;;;;;24.87;14.87;;;-1.60;99.90;;;;;;4979159;28;20247;-30
2022/03/08 00:16:19;;;;;;;23.23;15.40;;;-1.60;99.90;;;;;;4995228;28;20246;-29
2022/03/08 00:18:48;;;;;;;21.93;14.43;;;-1.70;99.90;;;;;;4994941;28;20179;-29
2022/03/08 00:21:16;;;;;;;26.67;14.77;;;-1.80;99.90;;;;;;4979052;28;20286;-30
2022/03/08 00:23:42;;;;;;;21.27;14.37;;;-1.80;99.90;;;;;;4995332;28;20178;-29
2022/03/08 00:26:10;;;;;;;21.53;13.80;;;-1.90;99.90;;;;;;4978675;28;20179;-29
2022/03/08 00:28:38;;;;;;;22.47;14.63;;;-1.90;99.90;;;;;;4994954;28;20667;-30
2022/03/08 00:31:05;;;;;;;23.87;14.07;;;-1.90;99.90;;;;;;4978701;28;20202;-30
2022/03/08 00:33:32;;;;;;;19.93;13.40;;;-1.70;99.90;;;;;;4993945;28;20168;-30
2022/03/08 00:35:58;;;;;;;21.73;13.70;;;-1.70;99.90;;;;;;4979085;28;20209;-29
2022/03/08 00:38:24;;;;;;;21.20;14.30;;;-1.60;99.90;;;;;;4978629;28;20287;-28
2022/03/08 00:40:50;;;;;;;20.07;13.43;;;-1.60;99.90;;;;;;4994606;28;20218;-30
2022/03/08 00:43:16;;;;;;;22.03;13.37;;;-1.50;99.90;;;;;;4978500;28;20207;-29
2022/03/08 00:45:43;;;;;;;18.20;12.03;;;-1.50;99.90;;;;;;4994740;28;20175;-29
2022/03/08 00:48:09;;;;;;;19.23;12.77;;;-1.60;99.90;;;;;;4978513;28;20194;-28
2022/03/08 00:50:36;;;;;;;20.43;13.30;;;-1.50;99.90;;;;;;4994585;28;20207;-29
2022/03/08 00:53:03;;;;;;;20.00;13.67;;;-1.60;99.90;;;;;;5012136;28;20254;-29
2022/03/08 00:55:30;;;;;;;19.97;12.87;;;-1.70;99.90;;;;;;4978475;28;20190;-29
2022/03/08 00:57:57;;;;;;;18.63;13.13;;;-1.70;99.90;;;;;;4978583;28;20209;-30
2022/03/08 01:00:25;;;;;;;20.53;14.03;;;-1.90;99.90;;;;;;4993932;28;20213;-28
2022/03/08 01:02:53;;;;;;;19.50;12.97;;;-1.90;99.90;;;;;;4994652;28;20215;-28
2022/03/08 01:05:19;;;;;;;25.47;14.67;;;-2.10;99.90;;;;;;4978187;28;20172;-28
2022/03/08 01:07:46;;;;;;;23.03;14.17;;;-2.20;99.90;;;;;;4977896;28;20179;-28
2022/03/08 01:10:18;;;;;;;24.43;14.10;;;-2.20;99.90;;;;;;4977524;28;20234;-29
2022/03/08 01:12:45;;;;;;;22.53;13.80;;;-2.30;99.90;;;;;;4977920;28;20190;-29
2022/03/08 01:15:12;;;;;;;21.03;13.63;;;-2.30;99.90;;;;;;4994194;28;20245;-28
2022/03/08 01:17:40;;;;;;;21.47;13.33;;;-2.20;99.90;;;;;;4978265;28;20671;-29
2022/03/08 01:20:11;;;;;;;21.60;12.97;;;-2.30;99.90;;;;;;4993754;28;20182;-28
2022/03/08 01:22:37;;;;;;;20.73;12.87;;;-2.20;99.90;;;;;;5011722;28;20209;-30
2022/03/08 01:25:04;;;;;;;20.93;12.60;;;-2.20;99.90;;;;;;4993185;28;20175;-29
2022/03/08 01:27:30;;;;;;;20.93;13.53;;;-2.10;99.90;;;;;;4977663;28;20190;-29
2022/03/08 01:29:58;;;;;;;21.93;13.73;;;-2.00;99.90;;;;;;4977946;28;20175;-28
2022/03/08 01:32:24;;;;;;;21.77;12.97;;;-2.10;99.90;;;;;;4993870;28;20237;-29
2022/03/08 01:34:50;;;;;;;22.03;13.67;;;-2.20;99.90;;;;;;4977734;28;20293;-28
2022/03/08 01:37:16;;;;;;;19.67;13.10;;;-2.30;99.90;;;;;;4977560;28;20589;-30
2022/03/08 01:39:42;;;;;;;20.27;13.57;;;-2.30;99.90;;;;;;4977182;28;20182;-30
2022/03/08 01:42:23;;;;;;;20.70;13.00;;;-2.30;99.90;;;;;;4977763;28;20215;-29
2022/03/08 01:44:49;;;;;;;19.53;12.80;;;-2.30;99.90;;;;;;4993750;28;20254;-29
2022/03/08 01:47:19;;;;;;;24.90;14.23;;;-2.20;99.90;;;;;;4977538;28;20210;-30
2022/03/08 01:49:45;;;;;;;21.43;13.57;;;-2.20;99.90;;;;;;4993691;28;20179;-29
2022/03/08 01:52:12;;;;;;;20.90;13.30;;;-2.30;99.90;;;;;;4977694;28;20206;-29
2022/03/08 01:54:41;;;;;;;19.73;13.10;;;-2.20;99.90;;;;;;4977611;28;20187;-29
2022/03/08 01:57:08;;;;;;;21.93;13.53;;;-2.30;99.90;;;;;;4977617;28;20187;-28
2022/03/08 01:59:35;;;;;;;21.90;13.27;;;-2.30;99.90;;;;;;4977315;28;20179;-30
2022/03/08 02:02:02;;;;;;;19.97;13.03;;;-2.40;99.90;;;;;;4977046;28;20218;-31
2022/03/08 02:04:28;;;;;;;22.13;13.37;;;-2.40;99.90;;;;;;4977147;28;20248;-29
2022/03/08 02:06:54;;;;;;;20.90;13.47;;;-2.40;99.90;;;;;;4993570;28;20175;-28
2022/03/08 02:09:21;;;;;;;20.47;12.10;;;-2.40;99.90;;;;;;4977433;28;20187;-28
2022/03/08 02:11:48;;;;;;;20.67;12.43;;;-2.50;99.90;;;;;;4977331;28;20586;-29
2022/03/08 02:14:17;;;;;;;19.77;13.17;;;-2.40;99.90;;;;;;4993488;28;20187;-29
2022/03/08 02:16:45;;;;;;;18.83;12.33;;;-2.40;99.90;;;;;;4993740;28;20179;-28
2022/03/08 02:19:12;;;;;;;19.73;11.77;;;-2.40;99.90;;;;;;4993328;28;20183;-30
2022/03/08 02:21:39;;;;;;;17.67;11.00;;;-2.50;99.90;;;;;;4977190;28;20211;-28
2022/03/08 02:24:05;;;;;;;19.60;11.77;;;-2.40;99.90;;;;;;4993224;28;20175;-28
2022/03/08 02:26:33;;;;;;;18.50;12.00;;;-2.40;99.90;;;;;;4993232;28;20241;-30
2022/03/08 02:29:03;;;;;;;19.87;12.27;;;-2.30;99.90;;;;;;4992709;28;20179;-29
2022/03/08 02:31:29;;;;;;;22.93;12.90;;;-2.40;99.90;;;;;;4977138;28;20237;-30
2022/03/08 02:33:55;;;;;;;19.50;12.27;;;-2.40;99.90;;;;;;4976883;28;20183;-29
2022/03/08 02:36:21;;;;;;;21.03;12.40;;;-2.40;99.90;;;;;;4977394;28;20182;-30
2022/03/08 02:38:47;;;;;;;21.40;12.90;;;-2.50;99.90;;;;;;4977205;28;20194;-30
2022/03/08 02:41:13;;;;;;;18.00;12.00;;;-2.50;99.90;;;;;;4992871;28;20204;-30
2022/03/08 02:44:04;;;;;;;19.90;12.80;;;-2.60;99.90;;;;;;4993363;28;20183;-29
2022/03/08 02:46:30;;;;;;;19.30;11.57;;;-2.60;99.90;;;;;;4993571;28;20176;-30
2022/03/08 02:48:56;;;;;;;22.17;12.70;;;-2.60;99.90;;;;;;4976906;28;20191;-30
2022/03/08 02:51:22;;;;;;;21.07;12.47;;;-2.60;99.90;;;;;;4977027;28;20203;-29
2022/03/08 02:53:47;;;;;;;19.23;12.27;;;-2.70;99.90;;;;;;4976946;28;20187;-30
2022/03/08 02:56:13;;;;;;;19.60;12.40;;;-2.70;99.90;;;;;;4977459;28;20222;-30
2022/03/08 02:58:39;;;;;;;19.20;11.77;;;-2.60;99.90;;;;;;4980616;28;20179;-29
2022/03/08 03:01:05;;;;;;;18.80;11.63;;;-2.70;99.90;;;;;;4980488;28;20253;-30
2022/03/08 03:03:30;;;;;;;19.50;12.07;;;-2.80;99.90;;;;;;4980551;28;20250;-28
2022/03/08 03:05:56;;;;;;;20.27;11.37;;;-2.80;99.90;;;;;;4980569;28;20184;-30
2022/03/08 03:08:22;;;;;;;18.07;11.60;;;-2.80;99.90;;;;;;4980623;28;20197;-29
2022/03/08 03:10:48;;;;;;;17.67;10.93;;;-2.80;99.90;;;;;;5013634;28;20200;-28
2022/03/08 03:13:14;;;;;;;17.13;11.00;;;-2.90;99.90;;;;;;4980006;28;20207;-30
2022/03/08 03:15:41;;;;;;;21.67;12.47;;;-2.90;99.90;;;;;;4979785;28;20217;-29
2022/03/08 03:18:09;;;;;;;19.50;12.00;;;-3.00;99.90;;;;;;4980533;28;20210;-28
2022/03/08 03:20:36;;;;;;;17.47;11.70;;;-3.10;99.90;;;;;;4980204;28;20206;-29
2022/03/08 03:23:02;;;;;;;18.37;11.67;;;-3.10;99.90;;;;;;4980082;28;20206;-29
2022/03/08 03:25:27;;;;;;;17.50;11.30;;;-3.10;99.90;;;;;;4980467;28;20656;-28
2022/03/08 03:27:53;;;;;;;17.10;11.33;;;-3.20;99.90;;;;;;4980097;28;20179;-28
2022/03/08 03:30:19;;;;;;;21.43;11.60;;;-3.20;99.90;;;;;;4979689;28;20182;-30
2022/03/08 03:32:45;;;;;;;26.90;13.83;;;-3.30;99.90;;;;;;4980220;28;20271;-29
2022/03/08 03:35:12;;;;;;;29.17;14.83;;;-3.30;99.90;;;;;;4996018;28;20182;-28
2022/03/08 03:37:38;;;;;;;29.37;14.83;;;-3.30;99.90;;;;;;4979589;28;20193;-29
2022/03/08 03:40:05;;;;;;;33.20;15.07;;;-3.30;99.90;;;;;;4995848;28;20566;-30
2022/03/08 03:42:31;;;;;;;29.27;14.80;;;-3.30;99.90;;;;;;4995790;28;20758;-30
2022/03/08 03:44:57;;;;;;;26.03;14.20;;;-3.30;99.90;;;;;;4996085;28;20175;-30
2022/03/08 03:47:23;;;;;;;24.27;13.07;;;-3.30;99.90;;;;;;4979962;28;20190;-30
2022/03/08 03:49:49;;;;;;;24.27;13.37;;;-3.40;99.90;;;;;;4979809;28;20183;-29
2022/03/08 03:52:15;;;;;;;25.47;13.90;;;-3.40;99.90;;;;;;4979483;28;20211;-29
2022/03/08 03:54:40;;;;;;;24.20;12.43;;;-3.40;99.90;;;;;;4979492;28;20190;-29
2022/03/08 03:57:08;;;;;;;20.70;12.33;;;-3.50;99.90;;;;;;4979648;28;20191;-28
2022/03/08 03:59:34;;;;;;;25.23;13.63;;;-3.50;99.90;;;;;;4979437;28;20230;-29
2022/03/08 04:02:00;;;;;;;23.17;13.87;;;-3.50;99.90;;;;;;4986916;23;20240;-35
2022/03/08 04:04:26;;;;;;;25.17;13.77;;;-3.50;99.90;;;;;;4940564;28;20181;-35
2022/03/08 04:06:52;;;;;;;26.07;13.90;;;-3.60;99.90;;;;;;4940525;28;20667;-36
2022/03/08 04:09:17;;;;;;;26.60;14.53;;;-3.50;99.90;;;;;;4956259;28;20173;-35
2022/03/08 04:11:43;;;;;;;23.97;13.40;;;-3.60;99.90;;;;;;4948859;28;20226;-35
2022/03/08 04:14:09;;;;;;;23.73;13.63;;;-3.60;99.90;;;;;;4975766;28;20188;-35
2022/03/08 04:16:35;;;;;;;26.10;14.50;;;-3.60;99.90;;;;;;4975759;28;20208;-35
2022/03/08 04:19:00;;;;;;;25.33;13.67;;;-3.50;99.90;;;;;;4975923;28;20188;-35
2022/03/08 04:21:26;;;;;;;22.80;12.43;;;-3.50;99.90;;;;;;4975687;28;20230;-35
2022/03/08 04:23:52;;;;;;;21.23;11.73;;;-3.40;99.90;;;;;;4975800;28;20180;-36
2022/03/08 04:26:18;;;;;;;20.27;11.30;;;-3.50;99.90;;;;;;4993352;28;20184;-35
2022/03/08 04:28:44;;;;;;;21.53;11.73;;;-3.60;99.90;;;;;;4959532;28;20215;-35
2022/03/08 04:31:09;;;;;;;23.37;12.80;;;-3.60;99.90;;;;;;4975674;28;20200;-35
2022/03/08 04:33:35;;;;;;;20.50;12.33;;;-3.70;99.90;;;;;;4959463;28;20188;-36
2022/03/08 04:36:01;;;;;;;21.60;12.47;;;-3.80;99.90;;;;;;4975364;28;20179;-35
2022/03/08 04:38:27;;;;;;;19.57;11.90;;;-3.80;99.90;;;;;;4975189;28;20676;-36
2022/03/08 04:40:53;;;;;;;19.80;11.67;;;-3.80;99.90;;;;;;4974940;28;20203;-36
2022/03/08 04:43:18;;;;;;;21.47;12.70;;;-3.80;99.90;;;;;;4975203;28;20207;-35
2022/03/08 04:45:45;;;;;;;19.97;12.03;;;-3.80;99.90;;;;;;4975460;28;20262;-35
2022/03/08 04:48:11;;;;;;;19.77;11.70;;;-3.90;99.90;;;;;;4975347;28;20183;-35
2022/03/08 04:50:38;;;;;;;21.87;12.60;;;-3.80;99.90;;;;;;4974916;28;20175;-35
2022/03/08 04:53:04;;;;;;;20.30;12.50;;;-3.80;99.90;;;;;;4975172;28;20200;-35
2022/03/08 04:55:30;;;;;;;20.00;11.93;;;-3.90;99.90;;;;;;4975050;28;20199;-36
2022/03/08 04:58:02;;;;;;;17.73;11.40;;;-3.90;99.90;;;;;;4976120;28;20220;-35
2022/03/08 05:00:28;;;;;;;20.80;12.00;;;-3.90;99.90;;;;;;4974477;28;20207;-35
2022/03/08 05:02:54;;;;;;;20.03;12.57;;;-3.90;99.90;;;;;;4975025;28;20219;-36
2022/03/08 05:05:20;;;;;;;23.10;12.03;;;-4.00;99.90;;;;;;4974906;28;20791;-36
2022/03/08 05:07:46;;;;;;;20.50;12.20;;;-4.10;99.90;;;;;;4975236;28;20180;-36
2022/03/08 05:10:13;;;;;;;20.77;11.83;;;-4.10;99.90;;;;;;4974807;28;20210;-35
2022/03/08 05:12:39;;;;;;;20.63;10.80;;;-4.20;99.90;;;;;;4974861;28;20546;-36
2022/03/08 05:15:06;;;;;;;18.97;10.53;;;-4.20;99.90;;;;;;4974905;28;20179;-36
2022/03/08 05:17:32;;;;;;;20.67;11.73;;;-4.20;99.90;;;;;;4974603;28;20190;-36
2022/03/08 05:19:58;;;;;;;20.73;10.67;;;-4.20;99.90;;;;;;4973747;28;20569;-35
2022/03/08 05:22:24;;;;;;;21.33;11.63;;;-4.20;99.90;;;;;;4974556;28;20291;-36
2022/03/08 05:24:50;;;;;;;20.67;12.13;;;-4.30;99.90;;;;;;4974557;28;20207;-36
2022/03/08 05:27:16;;;;;;;17.30;11.00;;;-4.30;99.90;;;;;;4974873;28;20179;-35
2022/03/08 05:29:43;;;;;;;18.07;11.27;;;-4.30;99.90;;;;;;4974290;28;20282;-35
2022/03/08 05:32:09;;;;;;;18.37;11.73;;;-4.30;99.90;;;;;;4958329;28;20299;-35
2022/03/08 05:34:35;;;;;;;18.47;11.40;;;-4.30;99.90;;;;;;4974474;28;20188;-35
2022/03/08 05:37:01;;;;;;;16.77;11.07;;;-4.30;99.90;;;;;;4958163;28;20189;-35
2022/03/08 05:39:27;;;;;;;19.20;11.87;;;-4.40;99.90;;;;;;4974195;28;20230;-36
2022/03/08 05:41:53;;;;;;;20.23;11.33;;;-4.60;99.90;;;;;;4974134;28;20215;-35
2022/03/08 05:44:19;;;;;;;19.73;11.63;;;-4.70;99.90;;;;;;4974376;28;20192;-35
2022/03/08 05:46:44;;;;;;;19.63;11.23;;;-4.80;99.90;;;;;;4974344;28;20179;-35
2022/03/08 05:49:10;;;;;;;19.50;11.33;;;-4.80;99.90;;;;;;4974083;28;20522;-35
2022/03/08 05:51:36;;;;;;;18.83;11.80;;;-4.70;99.90;;;;;;4973904;28;20207;-35
2022/03/08 05:54:02;;;;;;;20.87;11.83;;;-4.80;99.90;;;;;;4958312;28;20206;-35
2022/03/08 05:56:28;;;;;;;17.07;10.47;;;-4.80;99.90;;;;;;4958266;28;20639;-36
2022/03/08 05:58:54;;;;;;;18.97;11.43;;;-4.70;99.90;;;;;;4973740;28;20225;-35
2022/03/08 06:01:20;;;;;;;21.03;10.93;;;-4.80;99.90;;;;;;4957881;28;20211;-36
2022/03/08 06:03:46;;;;;;;18.67;11.20;;;-4.80;99.90;;;;;;4974363;28;20195;-35
2022/03/08 06:06:12;;;;;;;22.20;12.93;;;-4.80;99.90;;;;;;4958182;28;20195;-36
2022/03/08 06:08:39;;;;;;;23.07;13.23;;;-4.90;99.90;;;;;;4957974;28;20184;-35
2022/03/08 06:11:05;;;;;;;24.10;14.23;;;-4.90;99.90;;;;;;4970535;28;20216;-35
2022/03/08 06:13:31;;;;;;;21.57;12.73;;;-5.00;99.90;;;;;;4954667;28;20188;-35
2022/03/08 06:15:57;;;;;;;19.20;11.47;;;-5.10;99.90;;;;;;4954503;28;20339;-35
2022/03/08 06:18:22;;;;;;;23.63;12.43;;;-5.00;99.90;;;;;;4938718;28;20279;-35
2022/03/08 06:20:48;;;;;;;22.00;12.90;;;-5.00;99.90;;;;;;4954267;28;20217;-33
2022/03/08 06:23:14;;;;;;;22.03;12.80;;;-4.80;99.90;;;;;;4954811;28;20208;-33
2022/03/08 06:25:40;;;;;;;20.53;11.60;;;-4.60;99.90;;;;;;4954438;28;20609;-33
2022/03/08 06:28:07;;;;;;;20.90;11.60;;;-4.40;99.90;;;;;;4938787;28;20181;-33
2022/03/08 06:30:34;;;;;;;21.60;12.80;;;-4.30;99.90;;;;;;4954806;28;20238;-33
2022/03/08 06:32:59;;;;;;;20.40;12.27;;;-4.30;99.90;;;;;;4958462;28;20332;-33
2022/03/08 06:35:25;;;;;;;17.90;11.03;;;-4.10;99.90;;;;;;4942546;28;20247;-33
2022/03/08 06:37:51;;;;;;;22.63;11.60;;;-4.00;99.90;;;;;;4942548;28;20187;-37
2022/03/08 06:40:17;;;;;;;21.33;11.73;;;-3.90;99.90;;;;;;4960983;28;20270;-36
2022/03/08 06:42:43;;;;;;;29.20;14.97;;;-3.80;99.90;;;;;;4958771;28;20435;-35
2022/03/08 06:45:09;;;;;;;72.80;29.27;;;-3.70;99.90;;;;;;4957952;28;20187;-35
2022/03/08 06:47:38;;;;;;;38.77;19.43;;;-3.50;99.90;;;;;;4975876;28;20184;-36
2022/03/08 06:50:05;;;;;;;29.47;15.77;;;-3.40;99.90;;;;;;4957298;28;20192;-37
2022/03/08 06:52:31;;;;;;;29.07;14.67;;;-3.40;99.90;;;;;;4957309;28;20295;-37
2022/03/08 06:54:57;;;;;;;37.93;17.40;;;-3.30;99.90;;;;;;4958147;28;20185;-35
2022/03/08 06:57:24;;;;;;;27.43;14.70;;;-3.30;99.90;;;;;;4958163;28;20193;-35
2022/03/08 06:59:50;;;;;;;26.23;14.73;;;-3.20;99.90;;;;;;4957419;28;20192;-36
2022/03/08 07:02:16;;;;;;;23.17;13.37;;;-3.20;99.90;;;;;;4957773;28;20363;-38
2022/03/08 07:04:42;;;;;;;24.13;14.47;;;-3.10;99.90;;;;;;4957842;28;20188;-39
2022/03/08 07:07:07;;;;;;;19.13;12.67;;;-3.00;99.90;;;;;;4942082;28;20173;-36
2022/03/08 07:09:34;;;;;;;28.57;17.83;;;-3.00;99.90;;;;;;4975386;28;20177;-35
2022/03/08 07:12:00;;;;;;;25.33;17.27;;;-2.90;99.90;;;;;;4977256;28;20234;-36
2022/03/08 07:14:26;;;;;;;18.03;11.80;;;-3.00;99.90;;;;;;4994378;28;20180;-38
2022/03/08 07:16:52;;;;;;;21.27;13.13;;;-2.80;99.90;;;;;;4976906;28;20217;-36
2022/03/08 07:19:18;;;;;;;21.30;12.20;;;-2.80;99.90;;;;;;4975679;28;20188;-35
2022/03/08 07:21:47;;;;;;;21.63;12.97;;;-2.80;99.90;;;;;;4976799;28;20294;-35
2022/03/08 07:24:15;;;;;;;19.23;12.40;;;-2.60;99.90;;;;;;4972341;28;20655;-33
2022/03/08 07:26:40;;;;;;;20.03;12.33;;;-2.50;99.90;;;;;;4960296;28;20180;-33
2022/03/08 07:29:07;;;;;;;20.90;12.83;;;-2.40;99.90;;;;;;4959516;28;20278;-36
2022/03/08 07:31:33;;;;;;;20.83;12.80;;;-2.20;99.90;;;;;;4975925;28;20217;-34
2022/03/08 07:33:59;;;;;;;18.33;12.00;;;-2.10;99.90;;;;;;4990558;28;20180;-36
2022/03/08 07:36:26;;;;;;;24.23;13.10;;;-1.90;99.90;;;;;;4976182;28;20188;-36
2022/03/08 07:38:52;;;;;;;18.33;11.70;;;-1.80;99.90;;;;;;4976148;28;20279;-38
2022/03/08 07:41:18;;;;;;;20.03;12.07;;;-1.70;99.90;;;;;;4965390;28;20211;-34
2022/03/08 07:43:44;;;;;;;31.30;16.03;;;-1.50;99.90;;;;;;4975380;28;20212;-33
2022/03/08 07:46:10;;;;;;;28.83;16.87;;;-1.40;99.90;;;;;;4992511;28;20191;-33
2022/03/08 07:48:37;;;;;;;24.13;13.87;;;-1.30;99.90;;;;;;4976473;28;20172;-35
2022/03/08 07:51:03;;;;;;;25.30;14.90;;;-1.20;99.90;;;;;;4960113;28;20210;-36
2022/03/08 07:53:29;;;;;;;22.93;14.13;;;-1.00;99.90;;;;;;4993814;28;20195;-36
2022/03/08 07:55:55;;;;;;;23.63;13.37;;;-0.90;99.90;;;;;;4992102;28;20250;-36
2022/03/08 07:58:21;;;;;;;21.17;12.90;;;-0.70;99.90;;;;;;4960366;28;20255;-38
2022/03/08 08:00:47;;;;;;;20.03;12.30;;;-0.60;99.90;;;;;;4959281;28;20524;-36
2022/03/08 08:03:13;;;;;;;21.17;13.13;;;-0.50;99.90;;;;;;4992069;28;20223;-35
2022/03/08 08:05:39;;;;;;;24.73;14.20;;;-0.30;99.90;;;;;;4960009;28;20180;-35
2022/03/08 08:08:06;;;;;;;24.40;15.23;;;-0.10;99.90;;;;;;4992384;28;20211;-36
2022/03/08 08:10:33;;;;;;;18.90;12.07;;;0.00;99.90;;;;;;4959406;28;20190;-35
2022/03/08 08:12:59;;;;;;;19.53;12.17;;;0.20;99.90;;;;;;4975654;28;20207;-36
2022/03/08 08:15:26;;;;;;;17.27;11.53;;;0.40;99.90;;;;;;4975523;28;20188;-36
2022/03/08 08:17:53;;;;;;;21.90;13.40;;;0.60;99.90;;;;;;4964219;28;20187;-35
2022/03/08 08:20:21;;;;;;;20.60;12.70;;;0.80;99.90;;;;;;4959460;28;20188;-35
2022/03/08 08:22:48;;;;;;;19.63;12.70;;;1.00;99.90;;;;;;4936656;28;20223;-36
2022/03/08 08:25:14;;;;;;;16.43;12.73;;;1.20;99.90;;;;;;4953743;28;20185;-35
2022/03/08 08:27:40;;;;;;;18.03;12.30;;;1.40;99.90;;;;;;4971892;28;20181;-36
2022/03/08 08:30:10;;;;;;;17.43;11.73;;;1.60;99.90;;;;;;4974105;28;20630;-35
2022/03/08 08:32:36;;;;;;;16.10;10.83;;;1.80;99.90;;;;;;4959262;28;20210;-35
2022/03/08 08:35:03;;;;;;;12.87;9.20;;;1.90;99.90;;;;;;4959192;28;20193;-35
2022/03/08 08:37:29;;;;;;;16.00;10.87;;;2.10;99.90;;;;;;4992579;28;20186;-37
2022/03/08 08:39:54;;;;;;;13.87;9.43;;;2.40;99.90;;;;;;4959305;28;20206;-37
2022/03/08 08:42:22;;;;;;;15.13;10.07;;;2.50;99.90;;;;;;4992581;28;20205;-37
2022/03/08 08:44:48;;;;;;;16.67;10.80;;;2.70;99.90;;;;;;4992494;28;20196;-36
2022/03/08 08:47:14;;;;;;;15.83;11.07;;;2.80;99.90;;;;;;4975261;28;20191;-35
2022/03/08 08:49:39;;;;;;;15.30;10.80;;;3.00;99.90;;;;;;4958657;28;20179;-35
2022/03/08 08:52:07;;;;;;;15.30;9.80;;;3.10;99.90;;;;;;4992494;28;20202;-36
2022/03/08 08:54:32;;;;;;;14.53;10.13;;;3.30;99.90;;;;;;4960356;28;20183;-35
2022/03/08 08:56:58;;;;;;;13.47;8.63;;;3.40;99.90;;;;;;4994629;28;20190;-37
2022/03/08 08:59:24;;;;;;;10.60;8.10;;;3.60;99.90;;;;;;4990947;28;20279;-35
2022/03/08 09:01:50;;;;;;;10.30;8.03;;;3.70;99.50;;;;;;4955531;28;20287;-36
2022/03/08 09:04:16;;;;;;;11.10;7.50;;;3.90;99.30;;;;;;4965773;28;20176;-38
2022/03/08 09:06:42;;;;;;;10.17;7.97;;;4.10;99.00;;;;;;4958384;28;20184;-36
2022/03/08 09:09:09;;;;;;;8.93;6.50;;;4.20;98.60;;;;;;4956569;28;20259;-35
2022/03/08 09:11:35;;;;;;;8.30;5.87;;;4.40;97.80;;;;;;4991212;28;20208;-37
2022/03/08 09:14:02;;;;;;;7.63;6.43;;;4.60;97.10;;;;;;4974398;28;20270;-38
2022/03/08 09:16:28;;;;;;;9.37;5.67;;;4.70;96.60;;;;;;4958026;28;20183;-35
2022/03/08 09:18:54;;;;;;;7.70;6.03;;;4.80;96.20;;;;;;4973807;28;20266;-35
2022/03/08 09:21:20;;;;;;;8.37;6.90;;;4.90;95.50;;;;;;4974464;28;20683;-36
2022/03/08 09:23:46;;;;;;;10.43;6.80;;;5.10;96.30;;;;;;4974588;28;20279;-38
2022/03/08 09:26:12;;;;;;;10.20;6.90;;;5.20;95.10;;;;;;4974478;28;20180;-36
2022/03/08 09:28:37;;;;;;;11.67;7.00;;;5.30;95.60;;;;;;4992107;28;20172;-36
2022/03/08 09:31:03;;;;;;;8.37;6.13;;;5.30;94.50;;;;;;4944757;28;20209;-39
2022/03/08 09:33:29;;;;;;;7.73;5.73;;;5.30;94.50;;;;;;4969881;28;20185;-35
2022/03/08 09:35:55;;;;;;;6.50;5.43;;;5.40;94.20;;;;;;4953291;28;20188;-37
2022/03/08 09:38:21;;;;;;;12.83;7.77;;;5.50;94.10;;;;;;4953815;28;20200;-36
2022/03/08 09:40:47;;;;;;;8.10;6.37;;;5.60;93.80;;;;;;4964569;28;20197;-38
2022/03/08 09:43:17;;;;;;;7.90;5.60;;;5.70;93.90;;;;;;4974044;28;20819;-38
2022/03/08 09:45:43;;;;;;;8.10;5.90;;;5.80;93.20;;;;;;4974204;28;20181;-40
2022/03/08 09:48:09;;;;;;;7.50;5.30;;;5.80;93.10;;;;;;4974255;28;20176;-40
2022/03/08 09:50:36;;;;;;;7.00;5.80;;;5.80;93.20;;;;;;4973733;28;20185;-41
2022/03/08 09:53:04;;;;;;;6.73;5.53;;;5.90;93.10;;;;;;4974444;28;20208;-42
2022/03/08 09:55:30;;;;;;;7.13;5.50;;;6.00;93.00;;;;;;4945041;28;20289;-36
2022/03/08 09:57:56;;;;;;;7.17;5.33;;;6.10;92.60;;;;;;4958228;28;20183;-38
2022/03/08 10:00:23;;;;;;;6.07;5.37;;;6.20;92.70;;;;;;4972659;28;20220;-39
2022/03/08 10:02:55;;;;;;;6.27;4.93;;;6.30;91.90;;;;;;4957411;28;20235;-35
2022/03/08 10:05:23;;;;;;;6.63;5.20;;;6.30;91.90;;;;;;4958992;28;20185;-36
2022/03/08 10:08:22;;;;;;;6.33;5.20;;;6.50;92.20;;;;;;4961052;28;20243;-40
2022/03/08 10:10:51;;;;;;;6.47;5.37;;;6.60;91.90;;;;;;4987220;28;20197;-36
2022/03/08 10:13:18;;;;;;;7.60;5.87;;;6.60;92.00;;;;;;4980508;28;20182;-36
2022/03/08 10:15:44;;;;;;;7.60;5.93;;;6.70;92.10;;;;;;4963471;28;20216;-36
2022/03/08 10:18:10;;;;;;;8.80;5.53;;;6.80;91.90;;;;;;4980252;28;20273;-41
2022/03/08 10:20:35;;;;;;;7.00;5.53;;;6.80;91.90;;;;;;4979988;28;20183;-38
2022/03/08 10:23:10;;;;;;;7.07;5.53;;;6.90;91.60;;;;;;4997966;28;20236;-36
2022/03/08 10:25:38;;;;;;;7.43;5.67;;;7.00;92.00;;;;;;4964266;28;20178;-39
2022/03/08 10:28:05;;;;;;;8.20;5.70;;;7.10;92.00;;;;;;4980055;28;20190;-36
2022/03/08 10:30:44;;;;;;;9.10;6.27;;;7.20;91.50;;;;;;4962900;28;20213;-39
2022/03/08 10:33:11;;;;;;;7.47;5.90;;;7.30;91.10;;;;;;4970103;28;20182;-36
2022/03/08 10:35:42;;;;;;;13.90;7.30;;;7.30;91.10;;;;;;4955130;28;20207;-36
2022/03/08 10:38:13;;;;;;;9.87;7.20;;;7.30;90.80;;;;;;4984485;28;20183;-39
2022/03/08 10:40:41;;;;;;;9.70;5.80;;;7.30;91.50;;;;;;4972296;28;20225;-36
2022/03/08 10:43:09;;;;;;;10.47;6.10;;;7.30;91.10;;;;;;4963105;28;20203;-39
2022/03/08 10:45:39;;;;;;;7.83;5.37;;;7.30;91.10;;;;;;4960718;28;20201;-39
2022/03/08 10:48:07;;;;;;;9.00;5.80;;;7.40;90.70;;;;;;4944748;28;20212;-39
2022/03/08 10:50:36;;;;;;;6.90;5.47;;;7.60;90.60;;;;;;4950950;28;20213;-36
2022/03/08 10:53:04;;;;;;;10.87;6.07;;;7.50;89.90;;;;;;4960340;28;20203;-38
2022/03/08 10:55:50;;;;;;;9.07;6.03;;;7.60;90.50;;;;;;4944733;28;20191;-36
2022/03/08 10:58:18;;;;;;;8.67;5.73;;;7.80;90.70;;;;;;4944636;28;20266;-36
2022/03/08 11:00:51;;;;;;;6.50;5.57;;;7.80;90.10;;;;;;4944307;28;20195;-39
2022/03/08 11:03:23;;;;;;;8.27;6.03;;;7.90;90.60;;;;;;4944290;28;20653;-39
2022/03/08 11:05:54;;;;;;;6.80;5.90;;;8.10;89.20;;;;;;4962088;28;20190;-39
2022/03/08 11:08:22;;;;;;;6.70;5.60;;;8.20;89.90;;;;;;4968938;28;20179;-36
2022/03/08 11:10:48;;;;;;;7.90;5.67;;;8.30;88.80;;;;;;4956033;28;20208;-36
2022/03/08 11:13:17;;;;;;;7.63;5.43;;;8.30;88.10;;;;;;4961206;28;20292;-38
2022/03/08 11:15:44;;;;;;;6.70;5.80;;;8.40;87.50;;;;;;4996110;28;20180;-39
2022/03/08 11:18:11;;;;;;;7.03;5.70;;;8.50;87.50;;;;;;4992446;28;20178;-38
2022/03/08 11:20:40;;;;;;;6.90;5.63;;;8.50;86.40;;;;;;4976545;28;20178;-39
2022/03/08 11:23:07;;;;;;;8.50;6.10;;;8.50;85.90;;;;;;4989579;28;20208;-36
2022/03/08 11:25:36;;;;;;;7.43;5.77;;;8.50;85.90;;;;;;4965189;28;20211;-38
2022/03/08 11:28:03;;;;;;;7.80;5.93;;;8.50;86.60;;;;;;4967430;28;20180;-35
2022/03/08 11:30:33;;;;;;;7.13;6.40;;;8.60;87.10;;;;;;4967314;28;20179;-36
2022/03/08 11:33:35;;;;;;;7.53;5.87;;;8.70;85.50;;;;;;4987115;28;20214;-36
2022/03/08 11:36:08;;;;;;;10.40;6.37;;;8.80;86.40;;;;;;4993112;28;20186;-36
2022/03/08 11:38:34;;;;;;;9.70;6.37;;;8.70;85.70;;;;;;4992498;28;20187;-36
2022/03/08 11:41:00;;;;;;;9.37;6.80;;;8.70;86.40;;;;;;4952390;28;20692;-39
2022/03/08 11:43:44;;;;;;;9.20;6.47;;;8.80;85.70;;;;;;4943735;28;20209;-36
2022/03/08 11:46:16;;;;;;;8.93;6.97;;;8.90;86.50;;;;;;4957318;28;20183;-35
2022/03/08 11:49:03;;;;;;;7.43;6.33;;;9.10;86.80;;;;;;4956963;28;20184;-37
2022/03/08 11:51:30;;;;;;;8.97;6.53;;;9.20;85.90;;;;;;4973855;28;20219;-42
2022/03/08 11:54:24;;;;;;;8.00;6.63;;;9.30;84.70;;;;;;4967550;28;20267;-38
2022/03/08 11:56:52;;;;;;;7.90;6.63;;;9.30;84.80;;;;;;4984361;28;20177;-37
2022/03/08 11:59:25;;;;;;;8.20;6.97;;;9.20;84.70;;;;;;4974070;28;20183;-38
2022/03/08 12:01:54;;;;;;;7.27;6.17;;;9.40;86.00;;;;;;4955424;28;20209;-39
2022/03/08 12:04:20;;;;;;;8.97;6.83;;;9.60;84.80;;;;;;4940933;28;20181;-38
2022/03/08 12:06:58;;;;;;;9.33;6.90;;;9.80;83.80;;;;;;4963645;28;20238;-36
2022/03/08 12:09:25;;;;;;;9.53;6.37;;;9.80;82.40;;;;;;4971350;28;20179;-38
2022/03/08 12:12:04;;;;;;;9.60;7.10;;;9.80;82.00;;;;;;4958522;28;20234;-38
2022/03/08 12:14:36;;;;;;;8.73;6.87;;;9.80;82.40;;;;;;4958045;28;20187;-36
2022/03/08 12:17:19;;;;;;;8.47;6.30;;;9.50;80.70;;;;;;4975822;28;20176;-37
2022/03/08 12:19:48;;;;;;;7.97;6.50;;;9.40;83.90;;;;;;4950730;28;20183;-39
2022/03/08 12:22:20;;;;;;;10.43;6.80;;;9.70;82.60;;;;;;4975830;28;20200;-40
2022/03/08 12:24:49;;;;;;;8.87;5.73;;;9.80;80.80;;;;;;4991319;28;20211;-38
2022/03/08 12:27:16;;;;;;;8.73;6.83;;;9.90;81.60;;;;;;4965164;28;20173;-39
2022/03/08 12:30:00;;;;;;;9.70;6.67;;;10.10;81.20;;;;;;4941864;28;20183;-40
2022/03/08 12:32:47;;;;;;;8.50;6.40;;;10.30;81.50;;;;;;4939128;28;20213;-36
2022/03/08 12:35:14;;;;;;;7.67;6.00;;;10.40;80.20;;;;;;4955114;28;20284;-39
2022/03/08 12:37:58;;;;;;;6.47;5.50;;;10.40;80.20;;;;;;4973003;28;20192;-36